»·PEaware :: N899M KLAS-KLAX

N899M :: KLAS-KLAX

FLIGHT INFORMATION

Flight Status: Arrived
Operator: Privately registered:
United States
More flights under this callsign
Pilot: Robert C. (30425)
Aircraft: Unknown
(EPIC)
More flights by this aircraft type
Origin: KLAS McCarran Intl
United States
Destination: KLAX Los Angeles Intl
United States
More flights between these airports :: More routes between these airports
Route: GFS V210 HEC V12 PMD KIMMO3
File this flight plan on PilotEdge
Remarks:
Altitude:
(Current/Filed)
14,000ft
Speed:
(Current/Filed)
300kts
Departed: 24-Oct-20 01:06 PM
Arrived: 24-Oct-20 02:07 PM
Distance/Time
Traveled:
205nm/1:01
Distance/Time
To Go:
Arrived

Flight Plot

Page will automatically refresh every two minutes.

Flight plan parsing failed; only flown route is shown


Map Options




Map Legend


Flown Route
Filed Route
Departure Airport
Arrival Airport
Navaid (VOR, NDB)
Fix

Horizontal Profiles

Position Reports

Time Latitude Longitude Heading Altitude Ground
Speed
24-Oct-20 12:31 36.097196 -115.161300 293 2102ft 0kts
24-Oct-20 12:32 36.097196 -115.161300 293 2102ft 0kts
24-Oct-20 12:33 36.097196 -115.161300 293 2102ft 0kts
24-Oct-20 12:34 36.097196 -115.161300 293 2102ft 0kts
24-Oct-20 12:35 36.097196 -115.161300 293 2102ft 0kts
24-Oct-20 12:36 36.097196 -115.161300 293 2102ft 0kts
24-Oct-20 12:37 36.097196 -115.161300 293 2102ft 0kts
24-Oct-20 12:38 36.097196 -115.161300 293 2102ft 0kts
24-Oct-20 12:39 36.097196 -115.161300 293 2102ft 0kts
24-Oct-20 12:40 36.097196 -115.161300 293 2102ft 0kts
24-Oct-20 12:41 36.097196 -115.161300 293 2102ft 0kts
24-Oct-20 12:42 36.097196 -115.161300 293 2102ft 0kts
24-Oct-20 12:43 36.097196 -115.161300 293 2102ft 0kts
24-Oct-20 12:44 36.097196 -115.161300 293 2102ft 0kts
24-Oct-20 12:45 36.097196 -115.161300 293 2102ft 0kts
24-Oct-20 12:46 36.097196 -115.161300 293 2102ft 0kts
24-Oct-20 12:47 36.097196 -115.161300 293 2102ft 0kts
24-Oct-20 12:48 36.097196 -115.161300 293 2102ft 0kts
24-Oct-20 12:49 36.097196 -115.161300 293 2102ft 0kts
24-Oct-20 12:50 36.097196 -115.161300 293 2102ft 0kts
24-Oct-20 12:51 36.097196 -115.161300 293 2102ft 0kts
24-Oct-20 12:52 36.097196 -115.161300 293 2102ft 0kts
24-Oct-20 12:53 36.097196 -115.161300 293 2102ft 0kts
24-Oct-20 12:54 36.097196 -115.161300 293 2102ft 0kts
24-Oct-20 12:55 36.097196 -115.161300 293 2102ft 0kts
24-Oct-20 12:56 36.097196 -115.161300 293 2102ft 0kts
24-Oct-20 12:57 36.097196 -115.161300 293 2102ft 0kts
24-Oct-20 12:58 36.097196 -115.161300 293 2102ft 0kts
24-Oct-20 12:59 36.097243 -115.161372 337 2102ft 1kts
24-Oct-20 13:00 36.097829 -115.159936 47 2096ft 7kts
24-Oct-20 13:01 36.099100 -115.159205 21 2092ft 4kts
24-Oct-20 13:02 36.099107 -115.158039 114 2087ft 0kts
24-Oct-20 13:03 36.099107 -115.158039 114 2087ft 0kts
24-Oct-20 13:04 36.098443 -115.157229 184 2085ft 19kts
24-Oct-20 13:05 36.068629 -115.173988 201 3026ft 169kts
24-Oct-20 13:06 36.018622 -115.200113 202 4494ft 236kts
24-Oct-20 13:07 35.951374 -115.232009 202 6157ft 272kts
24-Oct-20 13:08 35.879154 -115.264367 202 7962ft 280kts
24-Oct-20 13:09 35.805415 -115.295754 202 9755ft 281kts
24-Oct-20 13:10 35.728053 -115.287275 173 11529ft 284kts
24-Oct-20 13:11 35.650494 -115.272528 174 13320ft 282kts
24-Oct-20 13:12 35.570201 -115.257609 174 14011ft 307kts
24-Oct-20 13:13 35.485749 -115.241909 174 14007ft 304kts
24-Oct-20 13:14 35.423189 -115.281192 259 14015ft 288kts
24-Oct-20 13:15 35.383850 -115.366229 237 14008ft 292kts
24-Oct-20 13:16 35.339286 -115.450798 237 14007ft 296kts
24-Oct-20 13:17 35.294421 -115.535644 237 14006ft 297kts
24-Oct-20 13:18 35.249463 -115.620459 237 14005ft 297kts
24-Oct-20 13:19 35.204245 -115.705555 236 14008ft 298kts
24-Oct-20 13:20 35.158906 -115.790674 236 14010ft 298kts
24-Oct-20 13:21 35.113636 -115.875458 236 14006ft 299kts
24-Oct-20 13:22 35.068084 -115.960566 236 13998ft 299kts
24-Oct-20 13:23 35.022534 -116.045455 237 14002ft 299kts
24-Oct-20 13:24 34.976992 -116.130133 237 14017ft 299kts
24-Oct-20 13:25 34.931174 -116.215112 237 14028ft 300kts
24-Oct-20 13:26 34.885160 -116.300263 237 14027ft 301kts
24-Oct-20 13:27 34.839007 -116.385467 237 14012ft 302kts
24-Oct-20 13:28 34.796725 -116.472915 261 14006ft 300kts
24-Oct-20 13:29 34.786249 -116.573403 263 14006ft 300kts
24-Oct-20 13:30 34.776353 -116.674401 262 14010ft 300kts
24-Oct-20 13:31 34.766415 -116.775056 262 14010ft 300kts
24-Oct-20 13:33 34.756335 -116.876264 262 14009ft 300kts
24-Oct-20 13:34 34.746228 -116.977072 262 14019ft 300kts
24-Oct-20 13:35 34.736021 -117.077841 261 14034ft 299kts
24-Oct-20 13:36 34.725704 -117.178189 261 14044ft 299kts
24-Oct-20 13:37 34.715287 -117.278686 261 13826ft 304kts
24-Oct-20 13:38 34.704618 -117.380974 261 13252ft 299kts
24-Oct-20 13:39 34.694241 -117.480108 261 12238ft 292kts
24-Oct-20 13:40 34.683942 -117.577651 262 11232ft 291kts
24-Oct-20 13:41 34.673581 -117.675155 261 10226ft 291kts
24-Oct-20 13:42 34.663196 -117.772100 261 9478ft 286kts
24-Oct-20 13:43 34.652878 -117.867360 260 8780ft 284kts
24-Oct-20 13:44 34.642508 -117.962362 260 8084ft 284kts
24-Oct-20 13:45 34.632074 -118.054719 253 8015ft 269kts
24-Oct-20 13:46 34.591937 -118.126870 232 8021ft 245kts
24-Oct-20 13:47 34.552122 -118.190734 232 8022ft 231kts
24-Oct-20 13:48 34.513786 -118.252009 232 8035ft 225kts
24-Oct-20 13:49 34.476072 -118.312233 231 8059ft 224kts
24-Oct-20 13:50 34.438368 -118.372339 231 8056ft 226kts
24-Oct-20 13:50 34.398348 -118.406628 174 7975ft 229kts
24-Oct-20 13:52 34.325556 -118.368036 155 7046ft 250kts
24-Oct-20 13:52 34.275853 -118.339147 155 7015ft 220kts
24-Oct-20 13:54 34.217455 -118.305397 155 7002ft 183kts
24-Oct-20 13:54 34.180677 -118.284212 155 7007ft 171kts
24-Oct-20 13:55 34.138906 -118.258908 151 7009ft 168kts
24-Oct-20 13:56 34.099203 -118.232097 151 7011ft 166kts
24-Oct-20 13:57 34.062417 -118.207894 151 5937ft 179kts
24-Oct-20 13:58 34.025007 -118.183869 151 4284ft 198kts
24-Oct-20 13:59 33.974941 -118.151682 151 2985ft 140kts
24-Oct-20 14:00 33.951670 -118.170293 291 3018ft 148kts
24-Oct-20 14:01 33.953559 -118.222193 265 2720ft 158kts
24-Oct-20 14:02 33.948430 -118.273911 264 1916ft 155kts
24-Oct-20 14:03 33.943379 -118.324059 262 1251ft 125kts
24-Oct-20 14:04 33.939520 -118.361573 262 486ft 99kts
24-Oct-20 14:05 33.936246 -118.391564 262 105ft 64kts
24-Oct-20 14:06 33.934414 -118.401934 144 119ft 8kts
24-Oct-20 14:07 33.934494 -118.398870 83 114ft 19kts
24-Oct-20 14:08 33.934278 -118.394183 79 106ft 5kts
24-Oct-20 14:09 33.933696 -118.394285 260 106ft 0kts
24-Oct-20 14:10 33.933696 -118.394285 260 106ft 0kts
24-Oct-20 14:11 33.933696 -118.394285 260 106ft 0kts

Navigation Log

Ident Type
Flight plan parsing failed, navigation log unavailable